Time,TemperatureF,DewpointF,PressureIn,WindDirection,WindDirectionDegrees,WindSpeedMPH,WindSpeedGustMPH,Humidity,HourlyPrecipIn,Conditions,Clouds,dailyrainin,SoftwareType,DateUTC
2016-12-05 00:02:00,35.6,31.8,29.99,SSW,202,15.0,22.6,86,0.04,RA,,0.00,WeatherDisplay:10.37,2016-12-05 05:02:00,
2016-12-05 00:07:00,35.8,32.0,29.99,South,180,18.1,18.1,86,0.04,RA,,0.00,WeatherDisplay:10.37,2016-12-05 05:07:00,
2016-12-05 00:12:00,35.8,32.0,29.98,South,180,14.1,18.8,86,0.04,CLR,,0.00,WeatherDisplay:10.37,2016-12-05 05:12:00,
2016-12-05 00:17:00,35.8,32.0,29.99,SW,225,8.1,19.9,86,0.04,CLR,,0.00,WeatherDisplay:10.37,2016-12-05 05:17:00,
2016-12-05 00:22:00,35.8,32.0,29.99,SSW,202,14.7,15.4,86,0.04,CLR,,0.00,WeatherDisplay:10.37,2016-12-05 05:22:00,
2016-12-05 00:27:00,35.8,32.0,29.99,SSW,202,5.0,7.5,86,0.04,CLR,,0.00,WeatherDisplay:10.37,2016-12-05 05:27:00,
2016-12-05 00:32:00,35.8,32.0,29.99,SSW,202,6.9,6.9,86,0.04,CLR,,0.00,WeatherDisplay:10.37,2016-12-05 05:32:00,
2016-12-05 00:37:00,35.8,32.0,29.99,South,180,16.4,23.5,86,0.04,CLR,,0.00,WeatherDisplay:10.37,2016-12-05 05:37:00,
2016-12-05 00:42:00,35.8,32.0,29.98,SW,225,15.0,21.5,86,0.02,CLR,,0.00,WeatherDisplay:10.37,2016-12-05 05:42:00,
2016-12-05 00:47:00,35.8,32.0,29.98,SSW,202,0.0,0.0,86,0.02,CLR,,0.00,WeatherDisplay:10.37,2016-12-05 05:47:00,
2016-12-05 00:52:00,36.0,32.2,29.98,South,180,15.0,19.1,86,0.02,CLR,,0.00,WeatherDisplay:10.37,2016-12-05 05:52:00,
2016-12-05 00:57:00,36.0,32.2,29.98,South,180,9.4,14.1,86,0.00,CLR,,0.00,WeatherDisplay:10.37,2016-12-05 05:57:00,
2016-12-05 01:02:00,36.0,32.2,29.98,SSW,202,16.1,21.8,86,0.00,CLR,,0.00,WeatherDisplay:10.37,2016-12-05 06:02:00,
2016-12-05 01:07:00,36.1,32.6,29.98,South,180,4.6,4.6,87,0.00,CLR,,0.00,WeatherDisplay:10.37,2016-12-05 06:07:00,
2016-12-05 01:12:00,36.1,32.6,29.98,SSW,202,3.5,12.7,87,0.00,CLR,,0.00,WeatherDisplay:10.37,2016-12-05 06:12:00,
2016-12-05 01:17:00,36.1,32.6,29.97,South,180,17.3,25.1,87,0.00,CLR,,0.00,WeatherDisplay:10.37,2016-12-05 06:17:00,
2016-12-05 01:22:00,36.1,32.6,29.98,SSW,202,16.1,18.7,87,0.00,CLR,,0.00,WeatherDisplay:10.37,2016-12-05 06:22:00,
2016-12-05 01:27:00,36.3,32.8,29.97,South,180,6.0,9.0,87,0.00,CLR,,0.00,WeatherDisplay:10.37,2016-12-05 06:27:00,
2016-12-05 01:32:00,36.3,32.8,29.96,SSW,202,13.8,19.7,87,0.00,CLR,,0.00,WeatherDisplay:10.37,2016-12-05 06:32:00,
2016-12-05 01:37:00,36.3,32.8,29.97,South,180,13.8,19.6,87,0.00,CLR,,0.00,WeatherDisplay:10.37,2016-12-05 06:37:00,
2016-12-05 01:42:00,36.5,33.0,29.97,South,180,13.8,14.0,87,0.00,CLR,,0.00,WeatherDisplay:10.37,2016-12-05 06:42:00,
2016-12-05 01:47:00,36.5,33.0,29.96,SSE,158,15.0,21.5,87,0.00,CLR,,0.00,WeatherDisplay:10.37,2016-12-05 06:47:00,
2016-12-05 01:52:00,36.7,33.2,29.97,South,180,14.1,14.1,87,0.00,CLR,,0.00,WeatherDisplay:10.37,2016-12-05 06:52:00,
2016-12-05 01:57:00,36.7,33.2,29.97,SSW,202,13.8,19.1,87,0.00,CLR,,0.00,WeatherDisplay:10.37,2016-12-05 06:57:00,
2016-12-05 02:02:00,36.7,33.2,29.97,South,180,9.2,12.9,87,0.00,CLR,,0.00,WeatherDisplay:10.37,2016-12-05 07:02:00,
2016-12-05 02:07:00,36.7,33.2,29.97,South,180,9.2,12.9,87,0.00,CLR,,0.00,WeatherDisplay:10.37,2016-12-05 07:07:00,
2016-12-05 02:12:00,36.9,33.4,29.97,South,180,9.4,14.1,87,0.00,CLR,,0.00,WeatherDisplay:10.37,2016-12-05 07:12:00,
2016-12-05 02:17:00,37.0,33.5,29.96,South,180,9.7,14.5,87,0.00,CLR,,0.00,WeatherDisplay:10.37,2016-12-05 07:17:00,
2016-12-05 02:22:00,37.0,33.5,29.96,South,180,5.8,0.0,87,0.00,CLR,,0.00,WeatherDisplay:10.37,2016-12-05 07:22:00,
2016-12-05 02:27:00,37.0,33.5,29.96,South,180,9.7,14.6,87,0.00,CLR,,0.00,WeatherDisplay:10.37,2016-12-05 07:27:00,
2016-12-05 02:32:00,37.0,33.5,29.96,SSW,202,9.4,9.4,87,0.00,CLR,,0.00,WeatherDisplay:10.37,2016-12-05 07:32:00,
2016-12-05 02:37:00,37.0,33.5,29.96,SSE,158,9.7,12.1,87,0.00,CLR,,0.00,WeatherDisplay:10.37,2016-12-05 07:37:00,
2016-12-05 02:42:00,37.0,33.5,29.97,South,180,9.4,13.1,87,0.00,CLR,,0.00,WeatherDisplay:10.37,2016-12-05 07:42:00,
2016-12-05 02:47:00,37.2,33.7,29.96,South,180,0.0,0.0,87,0.00,CLR,,0.00,WeatherDisplay:10.37,2016-12-05 07:47:00,
2016-12-05 02:52:00,37.2,33.7,29.96,SSE,158,4.7,5.5,87,0.00,CLR,,0.00,WeatherDisplay:10.37,2016-12-05 07:52:00,
2016-12-05 02:57:00,37.2,33.7,29.97,SW,225,11.5,17.1,87,0.00,CLR,,0.00,WeatherDisplay:10.37,2016-12-05 07:57:00,
2016-12-05 03:02:00,37.2,33.7,29.96,South,180,15.0,16.1,87,0.00,CLR,,0.00,WeatherDisplay:10.37,2016-12-05 08:02:00,
2016-12-05 03:07:00,37.2,33.7,29.96,South,180,12.7,18.6,87,0.00,CLR,,0.00,WeatherDisplay:10.37,2016-12-05 08:07:00,
2016-12-05 03:12:00,37.2,33.7,29.96,South,180,8.1,11.5,87,0.00,CLR,,0.00,WeatherDisplay:10.37,2016-12-05 08:12:00,
2016-12-05 03:17:00,37.2,33.7,29.96,SSW,202,10.4,10.4,87,0.00,CLR,,0.00,WeatherDisplay:10.37,2016-12-05 08:17:00,
2016-12-05 03:22:00,37.0,33.5,29.95,SSW,202,10.4,10.4,87,0.00,CLR,,0.00,WeatherDisplay:10.37,2016-12-05 08:22:00,
2016-12-05 03:27:00,37.0,33.5,29.95,SW,225,0.0,0.0,87,0.00,CLR,,0.00,WeatherDisplay:10.37,2016-12-05 08:27:00,
2016-12-05 03:32:00,37.0,33.5,29.95,South,180,10.7,10.7,87,0.00,CLR,,0.00,WeatherDisplay:10.37,2016-12-05 08:32:00,
2016-12-05 03:37:00,37.0,33.5,29.95,South,180,10.4,0.0,87,0.00,CLR,,0.00,WeatherDisplay:10.37,2016-12-05 08:37:00,
2016-12-05 03:42:00,37.0,33.5,29.96,South,180,0.0,0.0,87,0.00,CLR,,0.00,WeatherDisplay:10.37,2016-12-05 08:42:00,
2016-12-05 03:47:00,37.0,33.5,29.96,South,180,3.5,4.5,87,0.00,CLR,,0.00,WeatherDisplay:10.37,2016-12-05 08:47:00,
2016-12-05 03:52:00,36.9,33.4,29.96,South,180,0.0,0.0,87,0.00,CLR,,0.00,WeatherDisplay:10.37,2016-12-05 08:52:00,
2016-12-05 03:57:00,36.9,33.4,29.96,South,180,9.4,14.1,87,0.00,CLR,,0.00,WeatherDisplay:10.37,2016-12-05 08:57:00,
2016-12-05 04:02:00,36.7,33.2,29.96,SSW,202,5.7,5.7,87,0.00,CLR,,0.00,WeatherDisplay:10.37,2016-12-05 09:02:00,
2016-12-05 04:07:00,36.7,33.2,29.96,SSW,202,5.8,5.8,87,0.00,CLR,,0.00,WeatherDisplay:10.37,2016-12-05 09:07:00,
2016-12-05 04:12:00,36.5,33.0,29.96,South,180,4.7,7.0,87,0.00,CLR,,0.00,WeatherDisplay:10.37,2016-12-05 09:12:00,
2016-12-05 04:17:00,36.7,33.2,29.96,SSW,202,9.2,13.5,87,0.00,CLR,,0.00,WeatherDisplay:10.37,2016-12-05 09:17:00,
2016-12-05 04:22:00,36.7,33.2,29.96,SSW,202,8.1,8.1,87,0.00,CLR,,0.00,WeatherDisplay:10.37,2016-12-05 09:22:00,
2016-12-05 04:27:00,36.7,33.2,29.96,SSW,202,8.1,11.6,87,0.00,CLR,,0.00,WeatherDisplay:10.37,2016-12-05 09:27:00,
2016-12-05 04:32:00,36.9,33.4,29.96,SSW,202,5.4,0.0,87,0.00,CLR,,0.00,WeatherDisplay:10.37,2016-12-05 09:32:00,
2016-12-05 04:37:00,36.9,33.4,29.95,SSW,202,0.0,0.0,87,0.00,CLR,,0.00,WeatherDisplay:10.37,2016-12-05 09:37:00,
2016-12-05 04:42:00,36.9,33.4,29.95,South,180,0.0,0.0,87,0.00,CLR,,0.00,WeatherDisplay:10.37,2016-12-05 09:42:00,
2016-12-05 04:47:00,36.7,33.2,29.95,South,180,0.0,0.0,87,0.00,CLR,,0.00,WeatherDisplay:10.37,2016-12-05 09:47:00,
2016-12-05 04:52:00,36.7,33.2,29.95,South,180,0.0,0.0,87,0.00,CLR,,0.00,WeatherDisplay:10.37,2016-12-05 09:52:00,
2016-12-05 04:57:00,36.5,33.0,29.96,South,180,0.0,0.0,87,0.00,CLR,,0.00,WeatherDisplay:10.37,2016-12-05 09:57:00,
2016-12-05 05:02:00,36.5,33.0,29.96,South,180,0.0,0.0,87,0.00,CLR,,0.00,WeatherDisplay:10.37,2016-12-05 10:02:00,
2016-12-05 05:07:00,36.3,32.8,29.95,South,180,0.0,0.0,87,0.00,CLR,,0.00,WeatherDisplay:10.37,2016-12-05 10:07:00,
2016-12-05 05:12:00,36.3,32.8,29.95,South,180,0.0,0.0,87,0.00,CLR,,0.00,WeatherDisplay:10.37,2016-12-05 10:12:00,
2016-12-05 05:18:00,36.1,32.6,29.95,South,180,0.0,0.0,87,0.00,CLR,,0.00,WeatherDisplay:10.37,2016-12-05 10:18:00,
2016-12-05 05:23:00,36.1,32.6,29.96,South,180,0.0,0.0,87,0.00,CLR,,0.00,WeatherDisplay:10.37,2016-12-05 10:23:00,
2016-12-05 05:28:00,36.0,32.5,29.96,South,180,0.0,0.0,87,0.00,CLR,,0.00,WeatherDisplay:10.37,2016-12-05 10:28:00,
2016-12-05 05:33:00,35.8,32.3,29.96,South,180,0.0,0.0,87,0.00,CLR,,0.00,WeatherDisplay:10.37,2016-12-05 10:33:00,
2016-12-05 05:38:00,35.4,31.9,29.96,South,180,6.9,10.1,87,0.00,CLR,,0.00,WeatherDisplay:10.37,2016-12-05 10:38:00,
2016-12-05 05:43:00,35.4,31.9,29.96,South,180,0.0,0.0,87,0.00,CLR,,0.00,WeatherDisplay:10.37,2016-12-05 10:43:00,
2016-12-05 05:48:00,35.6,32.1,29.95,South,180,0.0,0.0,87,0.00,CLR,,0.00,WeatherDisplay:10.37,2016-12-05 10:48:00,
2016-12-05 05:53:00,35.8,32.3,29.95,South,180,5.8,5.8,87,0.00,CLR,,0.00,WeatherDisplay:10.37,2016-12-05 10:53:00,
2016-12-05 05:58:00,36.0,32.5,29.95,South,180,0.0,0.0,87,0.00,CLR,,0.00,WeatherDisplay:10.37,2016-12-05 10:58:00,
2016-12-05 06:03:00,36.1,32.6,29.96,South,180,3.5,0.0,87,0.00,CLR,,0.00,WeatherDisplay:10.37,2016-12-05 11:03:00,
2016-12-05 06:08:00,36.3,32.8,29.96,South,180,0.0,0.0,87,0.00,CLR,,0.00,WeatherDisplay:10.37,2016-12-05 11:08:00,
2016-12-05 06:13:00,36.3,32.8,29.96,SSW,202,0.0,0.0,87,0.00,CLR,,0.00,WeatherDisplay:10.37,2016-12-05 11:13:00,
2016-12-05 06:18:00,36.3,32.8,29.96,SSW,202,0.0,0.0,87,0.00,CLR,,0.00,WeatherDisplay:10.37,2016-12-05 11:18:00,
2016-12-05 06:23:00,36.3,32.8,29.96,SSW,202,0.0,0.0,87,0.00,CLR,,0.00,WeatherDisplay:10.37,2016-12-05 11:23:00,
2016-12-05 06:28:00,36.3,32.8,29.96,SSW,202,0.0,0.0,87,0.00,CLR,,0.00,WeatherDisplay:10.37,2016-12-05 11:28:00,
2016-12-05 06:33:00,36.1,32.6,29.96,SSW,202,0.0,0.0,87,0.00,CLR,,0.00,WeatherDisplay:10.37,2016-12-05 11:33:00,
2016-12-05 06:38:00,36.0,32.8,29.96,SSW,202,0.0,0.0,88,0.00,CLR,,0.00,WeatherDisplay:10.37,2016-12-05 11:38:00,
2016-12-05 06:43:00,35.8,32.6,29.96,SW,225,0.0,0.0,88,0.00,CLR,,0.00,WeatherDisplay:10.37,2016-12-05 11:43:00,
2016-12-05 06:48:00,35.8,32.6,29.97,SW,225,0.0,0.0,88,0.00,CLR,,0.00,WeatherDisplay:10.37,2016-12-05 11:48:00,
2016-12-05 06:53:00,35.8,32.6,29.96,SW,225,0.0,0.0,88,0.00,CLR,,0.00,WeatherDisplay:10.37,2016-12-05 11:53:00,
2016-12-05 06:58:00,35.4,32.2,29.96,SW,225,0.0,0.0,88,0.00,CLR,,0.00,WeatherDisplay:10.37,2016-12-05 11:58:00,
2016-12-05 07:03:00,35.1,31.9,29.97,SW,225,0.0,0.0,88,0.00,CLR,,0.00,WeatherDisplay:10.37,2016-12-05 12:03:00,
2016-12-05 07:08:00,34.9,31.7,29.97,SW,225,0.0,0.0,88,0.00,CLR,,0.00,WeatherDisplay:10.37,2016-12-05 12:08:00,
2016-12-05 07:13:00,34.3,30.9,29.97,SW,225,0.0,0.0,87,0.00,CLR,,0.00,WeatherDisplay:10.37,2016-12-05 12:13:00,
2016-12-05 07:18:00,34.3,30.9,29.97,SW,225,0.0,0.0,87,0.00,CLR,,0.00,WeatherDisplay:10.37,2016-12-05 12:18:00,
2016-12-05 07:23:00,34.0,30.5,29.97,SW,225,0.0,0.0,87,0.00,CLR,,0.00,WeatherDisplay:10.37,2016-12-05 12:23:00,
2016-12-05 07:28:00,33.6,30.2,29.98,SW,225,0.0,0.0,87,0.00,CLR,,0.00,WeatherDisplay:10.37,2016-12-05 12:28:00,
2016-12-05 07:33:00,33.4,30.0,29.98,SW,225,0.0,0.0,87,0.00,CLR,,0.00,WeatherDisplay:10.37,2016-12-05 12:33:00,
2016-12-05 07:38:00,33.3,29.8,29.98,SW,225,0.0,0.0,87,0.00,CLR,,0.00,WeatherDisplay:10.37,2016-12-05 12:38:00,
2016-12-05 07:43:00,32.9,29.5,29.98,SW,225,0.0,0.0,87,0.00,CLR,,0.00,WeatherDisplay:10.37,2016-12-05 12:43:00,
2016-12-05 07:48:00,32.7,29.3,29.98,SW,225,0.0,0.0,87,0.00,CLR,,0.00,WeatherDisplay:10.37,2016-12-05 12:48:00,
2016-12-05 07:53:00,32.5,29.1,29.99,SW,225,0.0,0.0,87,0.00,CLR,,0.00,WeatherDisplay:10.37,2016-12-05 12:53:00,
2016-12-05 07:58:00,32.5,29.1,29.99,SW,225,0.0,0.0,87,0.00,CLR,,0.00,WeatherDisplay:10.37,2016-12-05 12:58:00,
2016-12-05 08:03:00,32.5,29.1,29.99,SW,225,0.0,0.0,87,0.00,CLR,,0.00,WeatherDisplay:10.37,2016-12-05 13:03:00,
2016-12-05 08:08:00,32.5,29.1,29.99,SW,225,0.0,0.0,87,0.00,CLR,,0.00,WeatherDisplay:10.37,2016-12-05 13:08:00,
2016-12-05 08:13:00,32.4,28.9,29.99,SW,225,0.0,0.0,87,0.00,CLR,,0.00,WeatherDisplay:10.37,2016-12-05 13:13:00,
2016-12-05 08:18:00,32.4,28.9,29.99,SW,225,0.0,0.0,87,0.00,CLR,,0.00,WeatherDisplay:10.37,2016-12-05 13:18:00,
2016-12-05 08:23:00,32.4,28.9,29.99,SSW,202,0.0,0.0,87,0.00,CLR,,0.00,WeatherDisplay:10.37,2016-12-05 13:23:00,
2016-12-05 08:28:00,32.4,28.9,29.99,SSW,202,0.0,0.0,87,0.00,CLR,,0.00,WeatherDisplay:10.37,2016-12-05 13:28:00,
2016-12-05 08:33:00,32.5,29.1,29.99,SSW,202,0.0,0.0,87,0.00,CLR,,0.00,WeatherDisplay:10.37,2016-12-05 13:33:00,
2016-12-05 08:38:00,32.5,29.1,29.99,SSW,202,0.0,0.0,87,0.00,CLR,,0.00,WeatherDisplay:10.37,2016-12-05 13:38:00,
2016-12-05 08:43:00,32.5,29.1,30.00,SSW,202,0.0,0.0,87,0.00,CLR,,0.00,WeatherDisplay:10.37,2016-12-05 13:43:00,
2016-12-05 08:48:00,32.7,29.3,30.00,SSW,202,0.0,0.0,87,0.00,CLR,,0.00,WeatherDisplay:10.37,2016-12-05 13:48:00,
2016-12-05 08:53:00,32.9,29.5,30.00,SSW,202,0.0,0.0,87,0.00,CLR,,0.00,WeatherDisplay:10.37,2016-12-05 13:53:00,
2016-12-05 08:58:00,33.3,29.8,30.00,SSW,202,0.0,0.0,87,0.00,CLR,,0.00,WeatherDisplay:10.37,2016-12-05 13:58:00,
2016-12-05 09:03:00,34.0,30.5,30.00,SSW,202,0.0,0.0,87,0.00,CLR,,0.00,WeatherDisplay:10.37,2016-12-05 14:03:00,
2016-12-05 09:08:00,34.3,30.9,30.00,SSW,202,0.0,0.0,87,0.00,CLR,,0.00,WeatherDisplay:10.37,2016-12-05 14:08:00,
2016-12-05 09:13:00,34.9,31.7,30.00,SSW,202,0.0,0.0,88,0.00,CLR,,0.00,WeatherDisplay:10.37,2016-12-05 14:13:00,
2016-12-05 09:18:00,35.8,32.6,30.01,SSW,202,0.0,0.0,88,0.00,CLR,,0.00,WeatherDisplay:10.37,2016-12-05 14:18:00,
2016-12-05 09:23:00,36.5,33.3,30.01,SSW,202,0.0,0.0,88,0.00,CLR,,0.00,WeatherDisplay:10.37,2016-12-05 14:23:00,
2016-12-05 09:28:00,37.2,34.0,30.01,West,270,2.7,2.7,88,0.00,CLR,,0.00,WeatherDisplay:10.37,2016-12-05 14:28:00,
2016-12-05 09:33:00,38.3,35.1,30.01,West,270,0.0,0.0,88,0.00,CLR,,0.00,WeatherDisplay:10.37,2016-12-05 14:33:00,
2016-12-05 09:38:00,38.8,35.6,30.01,West,270,0.0,0.0,88,0.00,CLR,,0.00,WeatherDisplay:10.37,2016-12-05 14:38:00,
2016-12-05 09:43:00,39.4,36.1,30.01,West,270,0.0,0.0,88,0.00,CLR,,0.00,WeatherDisplay:10.37,2016-12-05 14:43:00,
2016-12-05 09:48:00,39.9,36.7,30.01,West,270,0.0,0.0,88,0.00,CLR,,0.00,WeatherDisplay:10.37,2016-12-05 14:48:00,
2016-12-05 09:53:00,40.5,37.2,30.01,West,270,0.0,0.0,88,0.00,CLR,,0.00,WeatherDisplay:10.37,2016-12-05 14:53:00,
2016-12-05 09:58:00,41.5,38.3,30.02,SW,225,0.0,0.0,88,0.00,CLR,,0.00,WeatherDisplay:10.37,2016-12-05 14:58:00,
2016-12-05 10:03:00,42.1,38.8,30.02,WSW,248,0.0,0.0,88,0.00,CLR,,0.00,WeatherDisplay:10.37,2016-12-05 15:03:00,
2016-12-05 10:08:00,42.8,39.5,30.01,WSW,248,0.0,0.0,88,0.00,CLR,,0.00,WeatherDisplay:10.37,2016-12-05 15:08:00,
2016-12-05 10:13:00,44.1,40.7,30.01,WSW,248,0.0,0.0,88,0.00,CLR,,0.00,WeatherDisplay:10.37,2016-12-05 15:13:00,
2016-12-05 10:18:00,44.8,41.4,30.01,WSW,248,0.0,0.0,88,0.00,CLR,,0.00,WeatherDisplay:10.37,2016-12-05 15:18:00,
2016-12-05 10:23:00,45.3,42.0,30.01,WSW,248,0.0,0.0,88,0.00,CLR,,0.00,WeatherDisplay:10.37,2016-12-05 15:23:00,
2016-12-05 10:28:00,46.2,42.9,30.01,West,270,0.0,0.0,88,0.00,CLR,,0.00,WeatherDisplay:10.37,2016-12-05 15:28:00,
2016-12-05 10:33:00,46.9,43.6,30.02,West,270,0.0,0.0,88,0.00,CLR,,0.00,WeatherDisplay:10.37,2016-12-05 15:33:00,
2016-12-05 10:38:00,47.3,43.9,30.01,West,270,0.0,0.0,88,0.00,CLR,,0.00,WeatherDisplay:10.37,2016-12-05 15:38:00,
2016-12-05 10:43:00,48.0,44.3,30.01,West,270,0.0,0.0,87,0.00,CLR,,0.00,WeatherDisplay:10.37,2016-12-05 15:43:00,
2016-12-05 10:48:00,48.2,44.5,30.01,West,270,0.0,0.0,87,0.00,CLR,,0.00,WeatherDisplay:10.37,2016-12-05 15:48:00,
2016-12-05 10:53:00,48.7,44.7,30.01,West,270,0.0,0.0,86,0.00,CLR,,0.00,WeatherDisplay:10.37,2016-12-05 15:53:00,
2016-12-05 10:58:00,48.9,44.9,30.01,SE,135,0.0,0.0,86,0.00,CLR,,0.00,WeatherDisplay:10.37,2016-12-05 15:58:00,
2016-12-05 11:03:00,48.9,44.3,30.01,SSW,202,5.8,5.8,84,0.00,CLR,,0.00,WeatherDisplay:10.37,2016-12-05 16:03:00,
2016-12-05 11:08:00,49.3,44.3,30.01,West,270,0.0,0.0,83,0.00,CLR,,0.00,WeatherDisplay:10.37,2016-12-05 16:08:00,
2016-12-05 11:13:00,49.3,43.7,30.01,SW,225,0.0,0.0,81,0.00,CLR,,0.00,WeatherDisplay:10.37,2016-12-05 16:13:00,
2016-12-05 11:18:00,49.8,43.9,30.01,NW,315,0.0,0.0,80,0.00,CLR,,0.00,WeatherDisplay:10.37,2016-12-05 16:18:00,
2016-12-05 11:23:00,50.2,43.6,30.02,NW,315,0.0,0.0,78,0.00,CLR,,0.00,WeatherDisplay:10.37,2016-12-05 16:23:00,
2016-12-05 11:28:00,50.5,42.9,30.01,NW,315,0.0,0.0,75,0.00,CLR,,0.00,WeatherDisplay:10.37,2016-12-05 16:28:00,
2016-12-05 11:33:00,50.7,42.4,30.01,WNW,292,9.7,11.9,73,0.00,CLR,,0.00,WeatherDisplay:10.37,2016-12-05 16:33:00,
2016-12-05 11:39:00,50.9,41.1,30.02,WNW,292,13.1,19.6,69,0.00,CLR,,0.00,WeatherDisplay:10.37,2016-12-05 16:39:00,
2016-12-05 11:44:00,50.9,40.3,30.02,WNW,292,0.0,0.0,67,0.00,CLR,,0.00,WeatherDisplay:10.37,2016-12-05 16:44:00,
2016-12-05 11:49:00,51.1,39.7,30.01,NW,315,6.9,6.9,65,0.00,CLR,,0.00,WeatherDisplay:10.37,2016-12-05 16:49:00,
2016-12-05 11:54:00,51.3,39.5,30.01,NW,315,0.0,0.0,64,0.00,CLR,,0.00,WeatherDisplay:10.37,2016-12-05 16:54:00,
2016-12-05 11:59:00,51.6,39.8,30.01,NW,315,0.0,0.0,64,0.00,CLR,,0.00,WeatherDisplay:10.37,2016-12-05 16:59:00,
2016-12-05 12:04:00,51.6,39.4,30.01,NW,315,0.0,0.0,63,0.00,CLR,,0.00,WeatherDisplay:10.37,2016-12-05 17:04:00,
2016-12-05 12:09:00,51.8,39.2,30.01,WSW,248,6.0,9.0,62,0.00,CLR,,0.00,WeatherDisplay:10.37,2016-12-05 17:09:00,